createdAt,value
2022-08-28T00:02:00.509Z,101420.16
2022-08-28T00:04:27.535Z,101417.78
2022-08-28T00:06:54.738Z,101427.84
2022-08-28T00:09:22.830Z,101429.22
2022-08-28T00:11:50.380Z,101424.84
2022-08-28T00:14:21.084Z,101425.66
2022-08-28T00:16:50.065Z,101419.66
2022-08-28T00:19:19.021Z,101420.31
2022-08-28T00:21:46.977Z,101425.16
2022-08-28T00:24:14.170Z,101419.00
2022-08-28T00:27:00.433Z,101417.09
2022-08-28T00:29:29.341Z,101430.50
2022-08-28T00:31:57.606Z,101425.00
2022-08-28T00:34:33.495Z,101429.69
2022-08-28T00:37:01.287Z,101436.34
2022-08-28T00:39:28.766Z,101434.34
2022-08-28T00:41:58.934Z,101434.50
2022-08-28T00:44:27.856Z,101441.88
2022-08-28T00:46:58.012Z,101441.53
2022-08-28T00:49:28.424Z,101442.84
2022-08-28T00:52:12.459Z,101439.31
2022-08-28T00:54:59.477Z,101444.84
2022-08-28T00:57:34.423Z,101434.47
2022-08-28T01:00:05.497Z,101438.31
2022-08-28T01:02:32.626Z,101441.31
2022-08-28T01:04:59.634Z,101446.47
2022-08-28T01:07:26.643Z,101442.28
2022-08-28T01:09:55.803Z,101449.47
2022-08-28T01:12:29.950Z,101451.28
2022-08-28T01:15:00.248Z,101445.72
2022-08-28T01:17:31.373Z,101448.78
2022-08-28T01:20:03.222Z,101456.41
2022-08-28T01:22:40.109Z,101450.56
2022-08-28T01:25:11.503Z,101457.03
2022-08-28T01:27:42.119Z,101456.69
2022-08-28T01:30:17.938Z,101463.69
2022-08-28T01:32:51.858Z,101463.47
2022-08-28T01:35:30.057Z,101466.31
2022-08-28T01:37:57.714Z,101466.94
2022-08-28T01:40:40.968Z,101466.09
2022-08-28T01:43:16.979Z,101464.59
2022-08-28T01:45:47.204Z,101467.59
2022-08-28T01:48:16.512Z,101473.41
2022-08-28T01:50:43.676Z,101466.84
2022-08-28T01:53:14.655Z,101469.19
2022-08-28T01:55:42.893Z,101450.75
2022-08-28T01:58:12.707Z,101470.19
2022-08-28T02:00:40.992Z,101462.72
2022-08-28T02:03:08.299Z,101471.25
2022-08-28T02:05:35.661Z,101465.06
2022-08-28T02:08:04.680Z,101477.94
2022-08-28T02:10:34.388Z,101485.16
2022-08-28T02:13:02.362Z,101477.09
2022-08-28T02:15:30.723Z,101482.28
2022-08-28T02:17:57.802Z,101476.84
2022-08-28T02:20:25.958Z,101482.88
2022-08-28T02:22:52.814Z,101477.84
2022-08-28T02:25:20.005Z,101482.34
2022-08-28T02:27:47.107Z,101488.19
2022-08-28T02:30:17.396Z,101474.28
2022-08-28T02:32:46.084Z,101480.78
2022-08-28T02:35:15.394Z,101480.03
2022-08-28T02:37:44.321Z,101478.34
2022-08-28T02:40:15.192Z,101478.69
2022-08-28T02:42:43.028Z,101476.31
2022-08-28T02:45:11.791Z,101472.28
2022-08-28T02:47:40.092Z,101477.63
2022-08-28T02:50:07.983Z,101477.63
2022-08-28T02:52:40.489Z,101474.59
2022-08-28T02:55:09.022Z,101479.94
2022-08-28T02:57:36.268Z,101479.38
2022-08-28T03:00:07.561Z,101486.25
2022-08-28T03:02:34.655Z,101483.34
2022-08-28T03:05:01.423Z,101479.16
2022-08-28T03:07:29.481Z,101482.44
2022-08-28T03:09:56.776Z,101490.16
2022-08-28T03:12:24.497Z,101486.72
2022-08-28T03:14:52.270Z,101494.03
2022-08-28T03:17:19.874Z,101494.34
2022-08-28T03:19:46.638Z,101497.84
2022-08-28T03:22:13.630Z,101500.00
2022-08-28T03:24:41.460Z,101499.16
2022-08-28T03:27:09.021Z,101493.66
2022-08-28T03:29:35.908Z,101499.00
2022-08-28T03:32:02.817Z,101495.41
2022-08-28T03:34:30.525Z,101493.03
2022-08-28T03:36:57.305Z,101507.66
2022-08-28T03:39:23.993Z,101507.13
2022-08-28T03:41:51.553Z,101516.81
2022-08-28T03:44:18.762Z,101511.47
2022-08-28T03:46:45.398Z,101520.78
2022-08-28T03:49:12.076Z,101522.75
2022-08-28T03:51:40.711Z,101512.53
2022-08-28T03:54:07.426Z,101518.06
2022-08-28T03:56:34.189Z,101520.88
2022-08-28T03:59:03.011Z,101530.31
2022-08-28T04:01:30.157Z,101524.59
2022-08-28T04:03:57.362Z,101531.00
2022-08-28T04:06:25.285Z,101537.50
2022-08-28T04:08:52.072Z,101536.13
2022-08-28T04:11:19.032Z,101533.88
2022-08-28T04:13:46.159Z,101534.03
2022-08-28T04:16:16.799Z,101542.44
2022-08-28T04:18:44.238Z,101547.88
2022-08-28T04:21:18.019Z,101547.56
2022-08-28T04:23:47.606Z,101536.19
2022-08-28T04:26:17.638Z,101528.50
2022-08-28T04:28:44.682Z,101543.22
2022-08-28T04:31:11.379Z,101541.00
2022-08-28T04:33:39.883Z,101543.66
2022-08-28T04:36:12.991Z,101545.09
2022-08-28T04:38:43.970Z,101547.78
2022-08-28T04:41:16.148Z,101549.78
2022-08-28T04:43:44.185Z,101555.25
2022-08-28T04:46:14.518Z,101557.94
2022-08-28T04:48:42.114Z,101552.28
2022-08-28T04:51:11.722Z,101559.47
2022-08-28T04:53:39.139Z,101563.41
2022-08-28T04:56:08.590Z,101563.31
2022-08-28T04:58:36.082Z,101573.84
2022-08-28T05:01:20.014Z,101566.97
2022-08-28T05:03:48.449Z,101573.84
2022-08-28T05:06:16.292Z,101563.47
2022-08-28T05:08:43.414Z,101562.34
2022-08-28T05:11:13.896Z,101569.94
2022-08-28T05:14:00.033Z,101577.38
2022-08-28T05:16:27.232Z,101584.94
2022-08-28T05:18:54.061Z,101585.94
2022-08-28T05:21:23.424Z,101586.63
2022-08-28T05:23:54.114Z,101582.28
2022-08-28T05:26:21.133Z,101586.22
2022-08-28T05:28:48.474Z,101585.94
2022-08-28T05:31:19.201Z,101585.63
2022-08-28T05:33:50.208Z,101580.56
2022-08-28T05:36:19.904Z,101571.03
2022-08-28T05:38:46.936Z,101575.66
2022-08-28T05:41:22.831Z,101565.38
2022-08-28T05:43:50.162Z,101572.94
2022-08-28T05:46:17.835Z,101576.16
2022-08-28T05:48:45.953Z,101579.41
2022-08-28T05:51:26.663Z,101572.38
2022-08-28T05:53:55.442Z,101577.97
2022-08-28T05:56:25.502Z,101575.44
2022-08-28T05:58:52.860Z,101573.63
2022-08-28T06:01:31.350Z,101568.16
2022-08-28T06:04:14.615Z,101578.22
2022-08-28T06:06:42.858Z,101568.81
2022-08-28T06:09:14.042Z,101579.56
2022-08-28T06:11:44.712Z,101583.31
2022-08-28T06:14:16.254Z,101568.53
2022-08-28T06:16:47.122Z,101579.19
2022-08-28T06:19:14.241Z,101584.63
2022-08-28T06:21:41.849Z,101590.03
2022-08-28T06:24:11.039Z,101583.88
2022-08-28T06:26:37.853Z,101587.31
2022-08-28T06:29:08.540Z,101578.53
2022-08-28T06:31:35.649Z,101571.75
2022-08-28T06:34:03.133Z,101587.25
2022-08-28T06:36:32.342Z,101581.00
2022-08-28T06:39:00.141Z,101591.09
2022-08-28T06:41:28.123Z,101593.81
2022-08-28T06:43:56.653Z,101588.94
2022-08-28T06:46:25.247Z,101587.31
2022-08-28T06:48:52.822Z,101594.38
2022-08-28T06:51:19.905Z,101585.63
2022-08-28T06:53:49.894Z,101582.75
2022-08-28T06:56:26.226Z,101588.31
2022-08-28T06:58:56.117Z,101586.56
2022-08-28T07:01:27.211Z,101579.47
2022-08-28T07:03:55.825Z,101576.69
2022-08-28T07:06:24.179Z,101573.53
2022-08-28T07:08:51.400Z,101582.56
2022-08-28T07:11:22.211Z,101576.91
2022-08-28T07:13:54.501Z,101572.41
2022-08-28T07:16:24.110Z,101569.91
2022-08-28T07:18:50.878Z,101571.63
2022-08-28T07:21:17.934Z,101572.63
2022-08-28T07:23:45.315Z,101580.88
2022-08-28T07:26:18.308Z,101577.66
2022-08-28T07:28:45.702Z,101577.00
2022-08-28T07:31:18.927Z,101574.78
2022-08-28T07:33:46.467Z,101574.44
2022-08-28T07:36:29.881Z,101564.50
2022-08-28T07:38:59.183Z,101567.16
2022-08-28T07:41:32.113Z,101573.88
2022-08-28T07:44:19.793Z,101566.84
2022-08-28T07:46:46.595Z,101567.81
2022-08-28T07:49:17.249Z,101563.13
2022-08-28T07:51:46.810Z,101568.50
2022-08-28T07:54:24.959Z,101572.31
2022-08-28T07:56:52.733Z,101567.09
2022-08-28T07:59:20.422Z,101573.75
2022-08-28T08:01:50.855Z,101565.94
2022-08-28T08:04:21.396Z,101570.94
2022-08-28T08:06:53.244Z,101568.63
2022-08-28T08:09:23.654Z,101569.97
2022-08-28T08:11:50.503Z,101560.78
2022-08-28T08:14:18.945Z,101563.75
2022-08-28T08:16:47.531Z,101564.00
2022-08-28T08:19:16.154Z,101561.59
2022-08-28T08:21:45.143Z,101568.69
2022-08-28T08:24:19.995Z,101571.22
2022-08-28T08:26:50.863Z,101567.19
2022-08-28T08:29:27.762Z,101573.72
2022-08-28T08:32:05.237Z,101571.94
2022-08-28T08:34:38.997Z,101570.91
2022-08-28T08:37:06.035Z,101573.91
2022-08-28T08:39:34.360Z,101562.63
2022-08-28T08:42:04.420Z,101565.59
2022-08-28T08:44:39.339Z,101571.41
2022-08-28T08:47:25.281Z,101572.56
2022-08-28T08:50:02.438Z,101568.78
2022-08-28T08:53:00.924Z,101568.59
2022-08-28T08:55:35.676Z,101570.25
2022-08-28T08:58:11.533Z,101562.31
2022-08-28T09:01:21.920Z,101571.34
2022-08-28T09:04:00.688Z,101566.44
2022-08-28T09:06:27.615Z,101571.66
2022-08-28T09:09:00.068Z,101577.16
2022-08-28T09:11:42.229Z,101568.88
2022-08-28T09:14:33.063Z,101576.19
2022-08-28T09:17:02.026Z,101593.38
2022-08-28T09:19:30.508Z,101584.88
2022-08-28T09:21:57.651Z,101592.31
2022-08-28T09:24:36.973Z,101590.31
2022-08-28T09:27:13.697Z,101581.78
2022-08-28T09:29:47.391Z,101584.63
2022-08-28T09:32:43.888Z,101582.53
2022-08-28T09:35:32.553Z,101583.56
2022-08-28T09:38:20.590Z,101584.28
2022-08-28T09:41:06.301Z,101577.09
2022-08-28T09:43:36.839Z,101587.56
2022-08-28T09:46:23.553Z,101591.78
2022-08-28T09:48:54.366Z,101585.47
2022-08-28T09:51:21.082Z,101582.25
2022-08-28T09:53:54.632Z,101585.13
2022-08-28T09:56:34.068Z,101589.28
2022-08-28T09:59:07.857Z,101597.44
2022-08-28T10:01:41.702Z,101583.53
2022-08-28T10:04:18.084Z,101579.06
2022-08-28T10:06:58.087Z,101573.44
2022-08-28T10:09:35.623Z,101569.28
2022-08-28T10:12:11.956Z,101574.66
2022-08-28T10:14:54.865Z,101577.91
2022-08-28T10:17:38.760Z,101578.03
2022-08-28T10:20:58.686Z,101575.25
2022-08-28T10:23:54.601Z,101573.25
2022-08-28T10:26:27.250Z,101577.28
2022-08-28T10:29:11.603Z,101566.78
2022-08-28T10:31:59.635Z,101577.84
2022-08-28T10:34:35.673Z,101571.59
2022-08-28T10:37:39.828Z,101566.94
2022-08-28T10:40:17.765Z,101561.13
2022-08-28T10:42:56.151Z,101576.00
2022-08-28T10:45:25.281Z,101565.22
2022-08-28T10:48:00.826Z,101569.16
2022-08-28T10:51:03.113Z,101579.03
2022-08-28T10:53:37.842Z,101580.50
2022-08-28T10:56:13.507Z,101580.03
2022-08-28T10:58:41.692Z,101578.09
2022-08-28T11:01:13.561Z,101570.72
2022-08-28T11:03:48.050Z,101573.84
2022-08-28T11:06:45.173Z,101569.09
2022-08-28T11:09:37.814Z,101560.25
2022-08-28T11:12:36.251Z,101563.97
2022-08-28T11:15:23.211Z,101563.34
2022-08-28T11:17:50.410Z,101565.94
2022-08-28T11:20:28.530Z,101572.47
2022-08-28T11:23:24.217Z,101582.47
2022-08-28T11:25:54.826Z,101583.44
2022-08-28T11:28:25.752Z,101577.03
2022-08-28T11:31:29.136Z,101578.00
2022-08-28T11:33:59.555Z,101584.16
2022-08-28T11:36:28.331Z,101579.22
2022-08-28T11:38:55.541Z,101563.75
2022-08-28T11:41:29.918Z,101565.53
2022-08-28T11:44:12.749Z,101570.75
2022-08-28T11:46:50.936Z,101566.06
2022-08-28T11:49:29.836Z,101566.69
2022-08-28T11:52:33.553Z,101566.41
2022-08-28T11:55:20.177Z,101565.94
2022-08-28T12:00:43.143Z,101573.28
2022-08-28T12:03:14.302Z,101563.50
2022-08-28T12:06:01.146Z,101564.28
2022-08-28T12:08:56.660Z,101566.84
2022-08-28T12:11:42.947Z,101572.84
2022-08-28T12:14:26.070Z,101570.16
2022-08-28T12:17:01.458Z,101578.66
2022-08-28T12:19:41.213Z,101577.59
2022-08-28T12:22:25.609Z,101571.97
2022-08-28T12:24:55.159Z,101560.53
2022-08-28T12:27:24.581Z,101560.72
2022-08-28T12:29:55.462Z,101557.00
2022-08-28T12:32:53.654Z,101556.00
2022-08-28T12:35:23.939Z,101555.22
2022-08-28T12:37:53.996Z,101546.00
2022-08-28T12:40:26.098Z,101548.19
2022-08-28T12:42:55.819Z,101552.69
2022-08-28T12:45:28.759Z,101557.91
2022-08-28T12:48:00.629Z,101560.44
2022-08-28T12:50:32.730Z,101564.03
2022-08-28T12:53:03.381Z,101550.63
2022-08-28T12:55:31.442Z,101555.25
2022-08-28T12:57:59.374Z,101556.31
2022-08-28T13:00:32.949Z,101540.50
2022-08-28T13:03:01.536Z,101540.88
2022-08-28T13:05:41.169Z,101547.28
2022-08-28T13:08:12.971Z,101535.22
2022-08-28T13:10:49.014Z,101546.19
2022-08-28T13:13:23.008Z,101534.56
2022-08-28T13:16:07.020Z,101536.28
2022-08-28T13:18:59.321Z,101521.97
2022-08-28T13:22:04.359Z,101539.78
2022-08-28T13:24:43.818Z,101535.69
2022-08-28T13:27:16.518Z,101544.25
2022-08-28T13:30:05.197Z,101534.63
2022-08-28T13:32:40.130Z,101546.84
2022-08-28T13:35:26.236Z,101542.94
2022-08-28T13:38:02.226Z,101545.69
2022-08-28T13:40:58.454Z,101541.56
2022-08-28T13:43:30.205Z,101544.78
2022-08-28T13:45:57.966Z,101544.69
2022-08-28T13:48:27.594Z,101530.97
2022-08-28T13:51:05.116Z,101538.34
2022-08-28T13:53:36.376Z,101532.28
2022-08-28T13:56:03.335Z,101537.59
2022-08-28T13:58:30.324Z,101534.25
2022-08-28T14:00:57.551Z,101526.13
2022-08-28T14:03:37.994Z,101534.75
2022-08-28T14:06:23.829Z,101531.72
2022-08-28T14:08:59.619Z,101523.75
2022-08-28T14:11:26.591Z,101510.69
2022-08-28T14:14:06.468Z,101520.28
2022-08-28T14:16:37.818Z,101518.84
2022-08-28T14:19:07.369Z,101521.00
2022-08-28T14:21:37.068Z,101518.75
2022-08-28T14:24:10.197Z,101522.19
2022-08-28T14:26:43.065Z,101530.06
2022-08-28T14:29:12.265Z,101517.41
2022-08-28T14:31:41.158Z,101499.84
2022-08-28T14:34:13.013Z,101521.28
2022-08-28T14:36:41.925Z,101514.19
2022-08-28T14:39:27.130Z,101520.59
2022-08-28T14:41:55.791Z,101527.09
2022-08-28T14:44:25.118Z,101524.97
2022-08-28T14:46:58.152Z,101517.38
2022-08-28T14:49:27.646Z,101522.81
2022-08-28T14:51:57.122Z,101515.53
2022-08-28T14:54:26.626Z,101520.47
2022-08-28T14:57:00.391Z,101514.13
2022-08-28T14:59:29.439Z,101510.53
2022-08-28T15:02:02.235Z,101514.03
2022-08-28T15:04:34.885Z,101512.84
2022-08-28T15:07:03.397Z,101506.69
2022-08-28T15:09:30.372Z,101509.38
2022-08-28T15:11:57.206Z,101519.16
2022-08-28T15:14:24.108Z,101524.84
2022-08-28T15:16:50.923Z,101516.19
2022-08-28T15:19:18.650Z,101516.22
2022-08-28T15:21:49.554Z,101515.66
2022-08-28T15:24:19.426Z,101535.34
2022-08-28T15:26:46.933Z,101523.03
2022-08-28T15:29:14.109Z,101528.72
2022-08-28T15:31:43.925Z,101536.59
2022-08-28T15:34:15.602Z,101519.59
2022-08-28T15:36:44.932Z,101513.28
2022-08-28T15:39:40.489Z,101525.28
2022-08-28T15:42:08.016Z,101520.25
2022-08-28T15:44:34.824Z,101529.41
2022-08-28T15:47:03.118Z,101524.78
2022-08-28T15:49:32.270Z,101515.81
2022-08-28T15:52:03.622Z,101522.66
2022-08-28T15:54:31.920Z,101523.84
2022-08-28T15:56:58.691Z,101512.44
2022-08-28T15:59:25.636Z,101527.50
2022-08-28T16:02:12.869Z,101527.13
2022-08-28T16:04:39.787Z,101524.00
2022-08-28T16:07:06.537Z,101525.03
2022-08-28T16:09:33.390Z,101524.78
2022-08-28T16:12:00.191Z,101510.09
2022-08-28T16:14:27.016Z,101520.25
2022-08-28T16:16:53.924Z,101521.44
2022-08-28T16:19:20.705Z,101524.19
2022-08-28T16:21:47.530Z,101524.22
2022-08-28T16:24:14.500Z,101529.69
2022-08-28T16:26:41.562Z,101523.66
2022-08-28T16:29:08.238Z,101533.06
2022-08-28T16:31:35.808Z,101528.78
2022-08-28T16:34:05.608Z,101536.63
2022-08-28T16:36:33.524Z,101534.31
2022-08-28T16:39:03.508Z,101530.84
2022-08-28T16:41:32.166Z,101533.97
2022-08-28T16:43:59.106Z,101529.25
2022-08-28T16:46:27.531Z,101539.03
2022-08-28T16:48:55.421Z,101532.75
2022-08-28T16:51:26.935Z,101537.81
2022-08-28T16:53:54.988Z,101542.69
2022-08-28T16:56:26.886Z,101540.63
2022-08-28T16:58:54.014Z,101535.63
2022-08-28T17:01:30.070Z,101532.34
2022-08-28T17:03:57.990Z,101538.13
2022-08-28T17:06:31.195Z,101539.13
2022-08-28T17:08:59.211Z,101530.38
2022-08-28T17:11:28.681Z,101526.94
2022-08-28T17:13:58.354Z,101526.03
2022-08-28T17:16:26.336Z,101533.81
2022-08-28T17:18:55.112Z,101537.53
2022-08-28T17:21:41.733Z,101528.84
2022-08-28T17:24:12.377Z,101534.34
2022-08-28T17:26:39.926Z,101540.16
2022-08-28T17:29:06.889Z,101530.84
2022-08-28T17:31:34.091Z,101532.69
2022-08-28T17:34:01.042Z,101546.81
2022-08-28T17:36:33.495Z,101546.78
2022-08-28T17:39:07.381Z,101551.78
2022-08-28T17:41:35.713Z,101547.59
2022-08-28T17:44:07.481Z,101553.34
2022-08-28T17:46:38.068Z,101554.78
2022-08-28T17:49:07.525Z,101556.84
2022-08-28T17:51:43.789Z,101556.59
2022-08-28T17:54:18.432Z,101564.88
2022-08-28T17:56:49.601Z,101559.38
2022-08-28T17:59:16.732Z,101566.56
2022-08-28T18:01:45.258Z,101565.91
2022-08-28T18:04:18.955Z,101575.22
2022-08-28T18:06:48.959Z,101576.16
2022-08-28T18:09:15.775Z,101573.16
2022-08-28T18:11:43.234Z,101564.91
2022-08-28T18:14:10.091Z,101578.41
2022-08-28T18:16:38.099Z,101577.97
2022-08-28T18:19:07.040Z,101580.91
2022-08-28T18:21:33.980Z,101580.88
2022-08-28T18:24:00.929Z,101578.66
2022-08-28T18:26:27.840Z,101575.81
2022-08-28T18:28:54.582Z,101580.91
2022-08-28T18:31:23.261Z,101592.88
2022-08-28T18:33:51.484Z,101594.34
2022-08-28T18:36:18.437Z,101600.31
2022-08-28T18:38:45.307Z,101590.00
2022-08-28T18:41:12.265Z,101598.66
2022-08-28T18:43:39.566Z,101598.84
2022-08-28T18:46:09.032Z,101596.38
2022-08-28T18:48:36.875Z,101603.59
2022-08-28T18:51:09.107Z,101608.91
2022-08-28T18:53:37.592Z,101605.75
2022-08-28T18:56:06.332Z,101609.59
2022-08-28T18:58:35.650Z,101611.44
2022-08-28T19:01:03.285Z,101606.03
2022-08-28T19:03:30.698Z,101615.47
2022-08-28T19:05:58.655Z,101621.78
2022-08-28T19:08:26.413Z,101624.56
2022-08-28T19:10:54.403Z,101605.56
2022-08-28T19:13:21.785Z,101625.91
2022-08-28T19:15:50.815Z,101616.72
2022-08-28T19:18:19.662Z,101627.84
2022-08-28T19:20:49.722Z,101630.44
2022-08-28T19:23:17.746Z,101634.84
2022-08-28T19:25:48.520Z,101621.63
2022-08-28T19:28:17.512Z,101636.13
2022-08-28T19:30:47.336Z,101640.50
2022-08-28T19:33:14.868Z,101631.75
2022-08-28T19:35:44.194Z,101640.03
2022-08-28T19:38:13.682Z,101651.81
2022-08-28T19:40:40.626Z,101644.28
2022-08-28T19:43:07.638Z,101650.31
2022-08-28T19:45:41.348Z,101638.97
2022-08-28T19:48:09.501Z,101638.78
2022-08-28T19:50:38.935Z,101642.16
2022-08-28T19:53:06.138Z,101644.59
2022-08-28T19:55:36.280Z,101652.47
2022-08-28T19:58:06.574Z,101651.34
2022-08-28T20:00:35.520Z,101662.25
2022-08-28T20:03:02.884Z,101661.44
2022-08-28T20:05:38.195Z,101658.31
2022-08-28T20:08:12.894Z,101666.38
2022-08-28T20:10:40.729Z,101667.75
2022-08-28T20:13:07.496Z,101662.75
2022-08-28T20:15:49.116Z,101658.25
2022-08-28T20:18:18.135Z,101671.16
2022-08-28T20:20:47.867Z,101679.06
2022-08-28T20:23:18.888Z,101675.56
2022-08-28T20:25:51.246Z,101666.84
2022-08-28T20:28:19.249Z,101669.38
2022-08-28T20:30:46.968Z,101666.03
2022-08-28T20:33:14.943Z,101665.84
2022-08-28T20:35:47.654Z,101671.75
2022-08-28T20:38:15.688Z,101661.84
2022-08-28T20:40:43.168Z,101664.69
2022-08-28T20:43:15.176Z,101669.56
2022-08-28T20:45:41.912Z,101658.81
2022-08-28T20:48:10.664Z,101665.69
2022-08-28T20:50:43.451Z,101672.75
2022-08-28T20:53:10.228Z,101663.84
2022-08-28T20:55:41.982Z,101668.88
2022-08-28T20:58:08.962Z,101669.72
2022-08-28T21:00:43.156Z,101662.84
2022-08-28T21:03:12.546Z,101665.56
2022-08-28T21:05:41.867Z,101674.91
2022-08-28T21:08:13.098Z,101677.28
2022-08-28T21:10:42.145Z,101684.66
2022-08-28T21:13:10.059Z,101688.50
2022-08-28T21:15:37.170Z,101691.34
2022-08-28T21:18:04.125Z,101691.69
2022-08-28T21:20:30.901Z,101694.88
2022-08-28T21:22:58.192Z,101697.72
2022-08-28T21:25:26.066Z,101692.53
2022-08-28T21:27:53.370Z,101687.34
2022-08-28T21:30:22.110Z,101695.06
2022-08-28T21:32:51.165Z,101686.66
2022-08-28T21:35:20.039Z,101689.34
2022-08-28T21:37:48.916Z,101694.00
2022-08-28T21:40:16.257Z,101697.03
2022-08-28T21:42:43.383Z,101703.41
2022-08-28T21:45:13.483Z,101698.19
2022-08-28T21:47:41.551Z,101708.91
2022-08-28T21:50:10.075Z,101711.75
2022-08-28T21:52:37.990Z,101711.22
2022-08-28T21:55:09.771Z,101720.94
2022-08-28T21:57:36.890Z,101717.94
2022-08-28T22:00:11.981Z,101724.97
2022-08-28T22:02:39.124Z,101718.25
2022-08-28T22:05:06.120Z,101717.59
2022-08-28T22:07:33.138Z,101720.44
2022-08-28T22:09:59.909Z,101721.28
2022-08-28T22:12:26.790Z,101722.75
2022-08-28T22:14:54.327Z,101704.56
2022-08-28T22:17:21.150Z,101704.91
2022-08-28T22:19:47.901Z,101699.34
2022-08-28T22:22:33.937Z,101720.31
2022-08-28T22:25:00.986Z,101717.22
2022-08-28T22:27:27.907Z,101721.38
2022-08-28T22:29:54.696Z,101711.66
2022-08-28T22:32:25.722Z,101714.31
2022-08-28T22:34:55.341Z,101723.88
2022-08-28T22:37:23.249Z,101723.88
2022-08-28T22:39:50.319Z,101714.09
2022-08-28T22:42:17.453Z,101681.44
2022-08-28T22:44:44.133Z,101710.53
2022-08-28T22:47:11.416Z,101722.00
2022-08-28T22:49:39.612Z,101702.03
2022-08-28T22:52:10.644Z,101721.56
2022-08-28T22:54:37.783Z,101724.16
2022-08-28T22:57:05.978Z,101722.47
2022-08-28T22:59:33.252Z,101714.59
2022-08-28T23:02:00.190Z,101706.53
2022-08-28T23:04:27.049Z,101713.09
2022-08-28T23:06:53.937Z,101708.44
2022-08-28T23:09:20.928Z,101720.59
2022-08-28T23:11:47.774Z,101716.69
2022-08-28T23:14:14.936Z,101708.56
2022-08-28T23:16:42.860Z,101724.34
2022-08-28T23:19:13.498Z,101716.38
2022-08-28T23:21:44.125Z,101716.06
2022-08-28T23:24:13.201Z,101712.16
2022-08-28T23:26:40.110Z,101713.84
2022-08-28T23:29:06.762Z,101709.13
2022-08-28T23:31:33.744Z,101708.28
2022-08-28T23:34:00.499Z,101711.38
2022-08-28T23:36:27.321Z,101705.03
2022-08-28T23:38:54.384Z,101704.34
2022-08-28T23:41:21.443Z,101711.25
2022-08-28T23:43:48.815Z,101715.06
2022-08-28T23:46:17.561Z,101705.03
2022-08-28T23:48:45.237Z,101697.47
2022-08-28T23:51:14.368Z,101697.94
2022-08-28T23:53:43.200Z,101690.25
2022-08-28T23:56:13.638Z,101690.13
2022-08-28T23:58:43.313Z,101698.03
